Time;durP1;ratioP1;P1;durP2;ratioP2;P2;SDS_P1;SDS_P2;PMS_P1;PMS_P2;Temp;Humidity;BMP_temperature;BMP_pressure;BME280_temperature;BME280_humidity;BME280_pressure;Samples;Min_cycle;Max_cycle;Signal;HPM_P1;HPM_P2
2022/03/05 00:00:00;;;;;;;24.63;13.52;;;;;;;;;;4970366;28;20228;-75
2022/03/05 00:02:27;;;;;;;26.83;13.95;;;;;;;;;;4964885;28;20198;-73
2022/03/05 00:04:54;;;;;;;24.23;13.10;;;;;;;;;;4968341;28;20205;-74
2022/03/05 00:07:21;;;;;;;23.65;13.10;;;;;;;;;;4971294;28;20208;-73
2022/03/05 00:09:48;;;;;;;19.80;12.52;;;;;;;;;;4973544;28;20204;-75
2022/03/05 00:12:15;;;;;;;23.92;12.90;;;;;;;;;;4966141;28;20197;-73
2022/03/05 00:14:44;;;;;;;23.17;12.88;;;;;;;;;;4968350;28;20224;-75
2022/03/05 00:17:11;;;;;;;21.58;13.20;;;;;;;;;;4973061;28;20198;-74
2022/03/05 00:19:38;;;;;;;21.65;12.18;;;;;;;;;;4975041;28;20592;-73
2022/03/05 00:22:05;;;;;;;23.58;12.63;;;;;;;;;;4974160;28;20205;-73
2022/03/05 00:24:32;;;;;;;20.65;11.85;;;;;;;;;;4964224;28;20225;-73
2022/03/05 00:26:59;;;;;;;18.50;12.18;;;;;;;;;;4972946;28;20213;-74
2022/03/05 00:29:26;;;;;;;22.65;11.85;;;;;;;;;;4973583;28;20200;-75
2022/03/05 00:31:55;;;;;;;24.95;14.65;;;;;;;;;;4970463;28;20216;-75
2022/03/05 00:34:22;;;;;;;27.13;14.32;;;;;;;;;;4966578;28;20189;-75
2022/03/05 00:36:49;;;;;;;26.10;15.00;;;;;;;;;;4971415;28;20649;-75
2022/03/05 00:39:16;;;;;;;22.40;12.75;;;;;;;;;;4972537;28;20202;-74
2022/03/05 00:41:43;;;;;;;22.42;12.55;;;;;;;;;;4974742;28;20230;-75
2022/03/05 00:44:10;;;;;;;23.75;13.60;;;;;;;;;;4972467;28;20198;-76
2022/03/05 00:46:37;;;;;;;21.60;12.18;;;;;;;;;;4970456;28;20197;-75
2022/03/05 00:49:06;;;;;;;26.58;14.45;;;;;;;;;;4974260;28;20649;-74
2022/03/05 00:51:33;;;;;;;25.55;12.60;;;;;;;;;;4968218;28;20209;-78
2022/03/05 00:54:00;;;;;;;25.85;12.85;;;;;;;;;;4966107;28;20206;-74
2022/03/05 00:56:27;;;;;;;20.27;11.68;;;;;;;;;;4972667;28;20213;-76
2022/03/05 00:58:54;;;;;;;20.92;10.70;;;;;;;;;;4972351;28;20197;-74
2022/03/05 01:01:21;;;;;;;23.50;13.25;;;;;;;;;;4971517;28;20229;-76
2022/03/05 01:03:49;;;;;;;19.95;10.60;;;;;;;;;;4974762;28;20194;-74
2022/03/05 01:06:17;;;;;;;25.40;13.15;;;;;;;;;;4972295;28;20202;-74
2022/03/05 01:08:44;;;;;;;21.98;13.73;;;;;;;;;;4968653;28;20194;-74
2022/03/05 01:11:15;;;;;;;24.25;12.35;;;;;;;;;;4974043;28;20216;-74
2022/03/05 01:13:42;;;;;;;23.60;14.18;;;;;;;;;;4966343;28;20206;-75
2022/03/05 01:16:09;;;;;;;20.10;11.13;;;;;;;;;;4960577;28;20612;-75
2022/03/05 01:18:36;;;;;;;25.25;14.27;;;;;;;;;;4973994;28;20568;-73
2022/03/05 01:21:03;;;;;;;24.90;12.20;;;;;;;;;;4974231;28;20217;-73
2022/03/05 01:23:32;;;;;;;26.35;13.50;;;;;;;;;;4966411;28;20227;-73
2022/03/05 01:25:59;;;;;;;20.95;12.00;;;;;;;;;;4956767;28;20684;-73
2022/03/05 01:28:26;;;;;;;19.63;11.68;;;;;;;;;;4969630;28;20208;-74
2022/03/05 01:30:53;;;;;;;22.00;12.10;;;;;;;;;;4969873;28;20210;-73
2022/03/05 01:33:20;;;;;;;20.98;12.77;;;;;;;;;;4974499;28;20186;-73
2022/03/05 01:35:48;;;;;;;18.23;11.45;;;;;;;;;;4969347;28;20213;-73
2022/03/05 01:38:15;;;;;;;20.88;12.45;;;;;;;;;;4969291;28;20197;-74
2022/03/05 01:40:44;;;;;;;23.52;12.40;;;;;;;;;;4971449;28;20673;-73
2022/03/05 01:43:11;;;;;;;19.50;12.35;;;;;;;;;;4970144;28;20205;-73
2022/03/05 01:45:39;;;;;;;20.67;12.98;;;;;;;;;;4967919;28;20676;-73
2022/03/05 01:48:07;;;;;;;25.05;12.27;;;;;;;;;;4967393;28;20212;-74
2022/03/05 01:50:34;;;;;;;19.48;12.13;;;;;;;;;;4968562;28;20224;-73
2022/03/05 01:53:01;;;;;;;20.60;11.77;;;;;;;;;;4971515;28;20217;-74
2022/03/05 01:55:28;;;;;;;21.23;11.65;;;;;;;;;;4972119;28;20206;-73
2022/03/05 01:57:57;;;;;;;27.83;13.07;;;;;;;;;;4970508;28;20200;-73
2022/03/05 02:00:24;;;;;;;23.60;14.25;;;;;;;;;;4970054;28;20244;-73
2022/03/05 02:02:51;;;;;;;20.63;12.05;;;;;;;;;;4970492;28;20194;-73
2022/03/05 02:05:18;;;;;;;24.88;12.13;;;;;;;;;;4973602;28;20212;-73
2022/03/05 02:07:46;;;;;;;25.58;13.40;;;;;;;;;;4966481;28;20201;-76
2022/03/05 02:10:13;;;;;;;20.38;11.27;;;;;;;;;;4970544;28;20379;-75
2022/03/05 02:12:40;;;;;;;20.77;12.50;;;;;;;;;;4971978;28;20198;-74
2022/03/05 02:15:10;;;;;;;22.08;11.73;;;;;;;;;;4970566;28;20200;-73
2022/03/05 02:17:38;;;;;;;25.00;12.20;;;;;;;;;;4970126;28;20201;-73
2022/03/05 02:20:05;;;;;;;26.50;12.50;;;;;;;;;;4968941;28;20202;-74
2022/03/05 02:22:34;;;;;;;26.55;12.68;;;;;;;;;;4966816;28;20527;-74
2022/03/05 02:25:03;;;;;;;24.77;14.88;;;;;;;;;;4963067;28;20593;-74
2022/03/05 02:27:30;;;;;;;20.40;11.77;;;;;;;;;;4967386;28;20727;-73
2022/03/05 02:29:57;;;;;;;19.13;12.55;;;;;;;;;;4968345;28;20198;-74
2022/03/05 02:32:25;;;;;;;20.58;12.35;;;;;;;;;;4970819;28;20198;-74
2022/03/05 02:34:52;;;;;;;22.73;14.10;;;;;;;;;;4968757;28;20209;-76
2022/03/05 02:37:19;;;;;;;23.33;13.30;;;;;;;;;;4966428;28;20194;-73
2022/03/05 02:39:47;;;;;;;20.80;11.57;;;;;;;;;;4964401;28;20286;-74
2022/03/05 02:42:15;;;;;;;21.00;11.88;;;;;;;;;;4967675;28;20234;-74
2022/03/05 02:44:42;;;;;;;16.90;12.00;;;;;;;;;;4966468;28;20193;-74
2022/03/05 02:47:09;;;;;;;20.20;11.80;;;;;;;;;;4966480;28;20201;-75
2022/03/05 02:49:37;;;;;;;20.75;12.60;;;;;;;;;;4970025;28;20190;-74
2022/03/05 02:52:04;;;;;;;20.65;12.63;;;;;;;;;;4968383;28;20202;-73
2022/03/05 02:54:31;;;;;;;21.98;11.95;;;;;;;;;;4972508;28;20212;-74
2022/03/05 02:56:59;;;;;;;25.00;12.18;;;;;;;;;;4965097;28;20202;-73
2022/03/05 02:59:27;;;;;;;23.05;12.43;;;;;;;;;;4965572;28;20202;-74
2022/03/05 03:01:54;;;;;;;19.75;10.75;;;;;;;;;;4968008;28;20221;-74
2022/03/05 03:04:21;;;;;;;19.80;11.65;;;;;;;;;;4972165;28;20205;-73
2022/03/05 03:06:50;;;;;;;23.02;12.70;;;;;;;;;;4965479;28;20190;-74
2022/03/05 03:09:17;;;;;;;21.75;12.73;;;;;;;;;;4970557;28;20204;-74
2022/03/05 03:11:44;;;;;;;19.08;11.32;;;;;;;;;;4962441;28;20205;-74
2022/03/05 03:14:12;;;;;;;21.25;12.13;;;;;;;;;;4958898;28;20208;-75
2022/03/05 03:16:39;;;;;;;17.67;11.73;;;;;;;;;;4963548;28;20204;-74
2022/03/05 03:19:06;;;;;;;25.77;12.52;;;;;;;;;;4966378;28;20193;-74
2022/03/05 03:21:33;;;;;;;20.92;12.90;;;;;;;;;;4966768;28;20221;-74
2022/03/05 03:24:00;;;;;;;21.65;12.10;;;;;;;;;;4969119;28;20228;-74
2022/03/05 03:26:27;;;;;;;21.20;12.38;;;;;;;;;;4957449;28;20198;-74
2022/03/05 03:28:55;;;;;;;25.42;11.65;;;;;;;;;;4965148;28;20557;-75
2022/03/05 03:31:23;;;;;;;21.40;11.85;;;;;;;;;;4963455;28;20203;-73
2022/03/05 03:33:50;;;;;;;21.17;12.02;;;;;;;;;;4965942;28;20202;-76
2022/03/05 03:36:17;;;;;;;20.85;11.57;;;;;;;;;;4970003;28;20194;-77
2022/03/05 03:38:44;;;;;;;19.70;10.75;;;;;;;;;;4972060;28;20204;-77
2022/03/05 03:41:11;;;;;;;19.05;11.98;;;;;;;;;;4972024;28;20216;-74
2022/03/05 03:43:38;;;;;;;23.02;11.75;;;;;;;;;;4963122;28;20194;-76
2022/03/05 03:46:05;;;;;;;23.10;11.52;;;;;;;;;;4962936;28;20203;-75
2022/03/05 03:48:34;;;;;;;22.25;12.07;;;;;;;;;;4972105;28;20205;-75
2022/03/05 03:51:01;;;;;;;25.52;13.43;;;;;;;;;;4974365;28;20208;-75
2022/03/05 03:53:28;;;;;;;23.05;12.27;;;;;;;;;;4968697;28;20209;-74
2022/03/05 03:55:55;;;;;;;21.45;11.73;;;;;;;;;;4958908;28;20206;-75
2022/03/05 03:58:23;;;;;;;21.67;11.57;;;;;;;;;;4963944;28;20204;-74
2022/03/05 04:00:50;;;;;;;21.05;12.10;;;;;;;;;;4969856;28;20222;-75
2022/03/05 04:03:17;;;;;;;22.50;11.32;;;;;;;;;;4970482;28;20200;-74
2022/03/05 04:05:46;;;;;;;20.55;10.65;;;;;;;;;;4971430;28;20189;-74
2022/03/05 04:10:57;;;;;;;19.35;12.00;;;;;;;;;;4967769;28;20201;-74
2022/03/05 04:13:24;;;;;;;19.90;13.15;;;;;;;;;;4971904;28;20201;-73
2022/03/05 04:15:51;;;;;;;22.27;12.40;;;;;;;;;;4967803;28;20197;-73
2022/03/05 04:18:19;;;;;;;20.23;12.77;;;;;;;;;;4966195;28;20514;-74
2022/03/05 04:20:47;;;;;;;20.90;12.27;;;;;;;;;;4968289;28;20652;-75
2022/03/05 04:23:14;;;;;;;23.33;12.25;;;;;;;;;;4970311;28;20561;-72
2022/03/05 04:25:41;;;;;;;19.92;11.10;;;;;;;;;;4969046;28;20201;-74
2022/03/05 04:28:08;;;;;;;19.05;10.95;;;;;;;;;;4971029;28;20190;-73
2022/03/05 04:30:37;;;;;;;22.63;12.48;;;;;;;;;;4968252;28;20657;-74
2022/03/05 04:33:04;;;;;;;15.35;9.30;;;;;;;;;;4973330;28;20557;-74
2022/03/05 04:35:31;;;;;;;27.80;14.20;;;;;;;;;;4974309;28;20212;-75
2022/03/05 04:37:59;;;;;;;22.25;11.88;;;;;;;;;;4971316;28;20201;-74
2022/03/05 04:40:26;;;;;;;22.50;12.85;;;;;;;;;;4973375;28;20209;-74
2022/03/05 04:42:53;;;;;;;23.08;13.40;;;;;;;;;;4970369;28;20308;-75
2022/03/05 04:45:20;;;;;;;20.65;11.75;;;;;;;;;;4970955;28;20205;-74
2022/03/05 04:47:47;;;;;;;21.50;11.18;;;;;;;;;;4972847;28;20213;-74
2022/03/05 04:50:14;;;;;;;26.58;12.60;;;;;;;;;;4967462;28;20202;-74
2022/03/05 04:52:41;;;;;;;20.50;11.68;;;;;;;;;;4972159;28;20241;-73
2022/03/05 04:55:11;;;;;;;19.48;12.38;;;;;;;;;;4972098;28;20205;-73
2022/03/05 04:57:38;;;;;;;25.10;11.77;;;;;;;;;;4968549;28;20206;-74
2022/03/05 05:00:07;;;;;;;20.83;11.35;;;;;;;;;;4973471;28;20217;-74
2022/03/05 05:02:34;;;;;;;20.40;10.88;;;;;;;;;;4965533;28;20217;-74
2022/03/05 05:05:01;;;;;;;21.30;12.70;;;;;;;;;;4971012;28;20193;-74
2022/03/05 05:07:28;;;;;;;18.73;11.10;;;;;;;;;;4967367;28;20205;-75
2022/03/05 05:09:55;;;;;;;22.10;10.73;;;;;;;;;;4970232;28;20193;-74
2022/03/05 05:12:24;;;;;;;22.42;12.18;;;;;;;;;;4973159;28;20205;-75
2022/03/05 05:14:51;;;;;;;25.10;13.80;;;;;;;;;;4973943;28;20700;-75
2022/03/05 05:17:18;;;;;;;20.67;10.80;;;;;;;;;;4970923;28;20193;-76
2022/03/05 05:19:45;;;;;;;24.80;12.60;;;;;;;;;;4974559;28;20665;-74
2022/03/05 05:22:12;;;;;;;21.63;12.75;;;;;;;;;;4970606;28;20213;-77
2022/03/05 05:24:39;;;;;;;22.58;11.50;;;;;;;;;;4969091;28;20217;-75
2022/03/05 05:27:07;;;;;;;25.85;12.77;;;;;;;;;;4970978;28;20209;-75
2022/03/05 05:29:35;;;;;;;20.75;12.00;;;;;;;;;;4973574;28;20202;-74
2022/03/05 05:32:02;;;;;;;24.90;11.77;;;;;;;;;;4970488;28;20210;-74
2022/03/05 05:34:29;;;;;;;27.27;11.93;;;;;;;;;;4968298;28;20208;-74
2022/03/05 05:36:56;;;;;;;23.77;13.43;;;;;;;;;;4966485;28;20189;-75
2022/03/05 05:39:23;;;;;;;19.95;12.27;;;;;;;;;;4971457;28;20194;-74
2022/03/05 05:41:50;;;;;;;25.33;13.88;;;;;;;;;;4967849;28;20229;-74
2022/03/05 05:44:17;;;;;;;21.65;12.95;;;;;;;;;;4972832;28;20204;-73
2022/03/05 05:46:46;;;;;;;21.60;12.27;;;;;;;;;;4969311;28;20209;-74
2022/03/05 05:49:13;;;;;;;23.60;12.45;;;;;;;;;;4973843;28;20206;-74
2022/03/05 05:51:40;;;;;;;26.10;14.00;;;;;;;;;;4968681;28;20203;-75
2022/03/05 05:54:08;;;;;;;21.38;12.93;;;;;;;;;;4970879;28;20217;-74
2022/03/05 05:56:35;;;;;;;23.63;12.75;;;;;;;;;;4966983;28;20197;-74
2022/03/05 05:59:02;;;;;;;23.45;12.30;;;;;;;;;;4971177;28;20212;-73
2022/03/05 06:01:29;;;;;;;22.98;13.63;;;;;;;;;;4970681;28;20225;-73
2022/03/05 06:03:58;;;;;;;22.45;10.82;;;;;;;;;;4972916;28;20330;-74
2022/03/05 06:06:25;;;;;;;25.70;12.68;;;;;;;;;;4961723;28;20208;-75
2022/03/05 06:08:52;;;;;;;21.45;12.48;;;;;;;;;;4966218;28;20292;-73
2022/03/05 06:11:19;;;;;;;25.95;13.45;;;;;;;;;;4971726;28;20202;-73
2022/03/05 06:13:46;;;;;;;24.50;13.90;;;;;;;;;;4973539;28;20208;-72
2022/03/05 06:16:14;;;;;;;20.83;12.18;;;;;;;;;;4968814;28;20212;-74
2022/03/05 06:18:41;;;;;;;25.25;11.20;;;;;;;;;;4973358;28;20208;-72
2022/03/05 06:21:09;;;;;;;22.67;12.85;;;;;;;;;;4969050;28;20699;-74
2022/03/05 06:23:37;;;;;;;22.20;11.35;;;;;;;;;;4965552;28;20222;-74
2022/03/05 06:26:04;;;;;;;22.70;12.63;;;;;;;;;;4961707;28;20556;-74
2022/03/05 06:28:31;;;;;;;21.20;11.23;;;;;;;;;;4972482;28;20201;-74
2022/03/05 06:30:58;;;;;;;25.08;12.30;;;;;;;;;;4968390;28;20198;-73
2022/03/05 06:33:25;;;;;;;19.17;12.07;;;;;;;;;;4972285;28;20656;-73
2022/03/05 06:35:53;;;;;;;24.20;11.35;;;;;;;;;;4972105;28;20695;-73
2022/03/05 06:38:21;;;;;;;23.10;13.23;;;;;;;;;;4969385;28;20197;-73
2022/03/05 06:40:48;;;;;;;23.42;13.38;;;;;;;;;;4969521;28;20245;-73
2022/03/05 06:43:16;;;;;;;23.48;11.32;;;;;;;;;;4970958;28;20229;-73
2022/03/05 06:45:43;;;;;;;23.40;11.77;;;;;;;;;;4963334;28;20194;-73
2022/03/05 06:48:10;;;;;;;30.02;13.77;;;;;;;;;;4968262;28;20683;-73
2022/03/05 06:50:38;;;;;;;20.77;11.82;;;;;;;;;;4970257;28;20202;-75
2022/03/05 06:53:05;;;;;;;18.23;11.27;;;;;;;;;;4966607;28;20472;-73
2022/03/05 06:55:34;;;;;;;27.58;13.25;;;;;;;;;;4967045;28;20690;-73
2022/03/05 06:58:01;;;;;;;28.25;14.73;;;;;;;;;;4966534;28;20681;-73
2022/03/05 07:00:28;;;;;;;24.77;13.60;;;;;;;;;;4963426;28;20217;-72
2022/03/05 07:02:55;;;;;;;20.30;11.68;;;;;;;;;;4962681;28;20227;-73
2022/03/05 07:05:22;;;;;;;17.83;11.15;;;;;;;;;;4963934;28;20204;-73
2022/03/05 07:07:49;;;;;;;22.65;12.52;;;;;;;;;;4963954;28;20205;-73
2022/03/05 07:10:16;;;;;;;22.90;13.30;;;;;;;;;;4964228;28;20198;-73
2022/03/05 07:12:45;;;;;;;21.40;13.32;;;;;;;;;;4964959;28;20194;-73
2022/03/05 07:15:12;;;;;;;26.35;12.63;;;;;;;;;;4972347;28;20235;-73
2022/03/05 07:17:39;;;;;;;27.38;13.35;;;;;;;;;;4970522;28;20201;-73
2022/03/05 07:20:07;;;;;;;29.23;13.35;;;;;;;;;;4970913;28;20189;-75
2022/03/05 07:22:34;;;;;;;25.00;13.40;;;;;;;;;;4971052;28;20221;-74
2022/03/05 07:25:01;;;;;;;19.92;11.63;;;;;;;;;;4964815;28;20240;-73
2022/03/05 07:27:28;;;;;;;22.20;12.68;;;;;;;;;;4973277;28;20653;-76
2022/03/05 07:29:56;;;;;;;24.02;12.85;;;;;;;;;;4966199;28;20221;-73
2022/03/05 07:32:23;;;;;;;21.20;13.00;;;;;;;;;;4955163;28;20201;-73
2022/03/05 07:34:51;;;;;;;21.40;11.45;;;;;;;;;;4963724;28;20580;-80
2022/03/05 07:37:18;;;;;;;20.33;10.68;;;;;;;;;;4958466;28;20584;-79
2022/03/05 07:39:45;;;;;;;20.13;10.55;;;;;;;;;;4962562;28;20201;-77
2022/03/05 07:42:12;;;;;;;18.10;11.32;;;;;;;;;;4963478;28;20225;-76
2022/03/05 07:44:39;;;;;;;24.13;11.73;;;;;;;;;;4954727;28;20201;-80
2022/03/05 07:47:07;;;;;;;22.98;13.00;;;;;;;;;;4950568;28;20212;-76
2022/03/05 07:49:35;;;;;;;26.13;13.63;;;;;;;;;;4954802;28;20224;-79
2022/03/05 07:52:02;;;;;;;22.40;12.05;;;;;;;;;;4953586;28;20245;-80
2022/03/05 07:54:29;;;;;;;22.70;11.10;;;;;;;;;;4955373;28;20197;-77
2022/03/05 07:56:56;;;;;;;21.17;12.50;;;;;;;;;;4954895;28;20204;-77
2022/03/05 07:59:23;;;;;;;27.00;14.75;;;;;;;;;;4963443;28;20206;-81
2022/03/05 08:01:50;;;;;;;22.75;13.70;;;;;;;;;;4957077;28;20664;-75
2022/03/05 08:04:19;;;;;;;21.30;13.18;;;;;;;;;;4966373;28;20205;-76
2022/03/05 08:06:46;;;;;;;22.85;13.80;;;;;;;;;;4966177;28;20633;-76
2022/03/05 08:09:13;;;;;;;20.85;11.95;;;;;;;;;;4968136;28;20217;-74
2022/03/05 08:11:40;;;;;;;18.00;11.98;;;;;;;;;;4967435;28;20205;-72
2022/03/05 08:14:07;;;;;;;18.33;11.77;;;;;;;;;;4970769;28;20573;-72
2022/03/05 08:16:34;;;;;;;24.38;13.27;;;;;;;;;;4961023;28;20940;-71
2022/03/05 08:19:02;;;;;;;19.58;11.73;;;;;;;;;;4962074;28;20201;-82
2022/03/05 08:21:30;;;;;;;21.77;11.52;;;;;;;;;;4970402;28;20620;-74
2022/03/05 08:23:58;;;;;;;24.80;12.65;;;;;;;;;;4965531;28;20264;-74
2022/03/05 08:26:25;;;;;;;21.17;12.25;;;;;;;;;;4967253;28;20209;-73
2022/03/05 08:28:52;;;;;;;22.60;11.52;;;;;;;;;;4966504;28;20201;-75
2022/03/05 08:31:19;;;;;;;23.10;13.30;;;;;;;;;;4968253;28;20201;-75
2022/03/05 08:33:46;;;;;;;18.92;11.27;;;;;;;;;;4973321;28;20202;-75
2022/03/05 08:36:13;;;;;;;27.55;12.68;;;;;;;;;;4968956;28;20205;-73
2022/03/05 08:38:41;;;;;;;20.70;10.80;;;;;;;;;;4966742;28;20206;-74
2022/03/05 08:41:09;;;;;;;19.35;12.45;;;;;;;;;;4975357;28;20194;-73
2022/03/05 08:43:36;;;;;;;18.65;10.55;;;;;;;;;;4971807;28;20245;-73
2022/03/05 08:46:05;;;;;;;20.35;12.10;;;;;;;;;;4974716;28;20703;-74
2022/03/05 08:48:32;;;;;;;21.25;11.45;;;;;;;;;;4969593;28;20624;-74
2022/03/05 08:50:59;;;;;;;21.90;12.40;;;;;;;;;;4967768;28;20201;-73
2022/03/05 08:53:26;;;;;;;17.23;11.02;;;;;;;;;;4972576;28;20216;-74
2022/03/05 08:55:54;;;;;;;20.15;11.95;;;;;;;;;;4974160;28;20456;-75
2022/03/05 08:58:22;;;;;;;20.35;11.80;;;;;;;;;;4970604;28;20329;-76
2022/03/05 09:00:49;;;;;;;19.08;10.75;;;;;;;;;;4971534;28;20206;-74
2022/03/05 09:03:16;;;;;;;17.75;9.88;;;;;;;;;;4973212;28;20256;-74
2022/03/05 09:05:43;;;;;;;21.98;12.15;;;;;;;;;;4974822;28;20204;-74
2022/03/05 09:08:11;;;;;;;19.77;11.05;;;;;;;;;;4970592;28;20211;-74
2022/03/05 09:10:38;;;;;;;17.88;10.68;;;;;;;;;;4971916;28;20205;-75
2022/03/05 09:13:07;;;;;;;19.15;10.52;;;;;;;;;;4966130;28;20186;-74
2022/03/05 09:15:34;;;;;;;18.95;11.23;;;;;;;;;;4971865;28;20727;-75
2022/03/05 09:18:01;;;;;;;20.52;12.10;;;;;;;;;;4968945;28;20200;-74
2022/03/05 09:20:28;;;;;;;19.02;11.18;;;;;;;;;;4974074;28;20209;-75
2022/03/05 09:22:55;;;;;;;21.55;10.85;;;;;;;;;;4971790;28;20692;-74
2022/03/05 09:25:23;;;;;;;19.92;10.25;;;;;;;;;;4972032;28;20280;-74
2022/03/05 09:27:50;;;;;;;16.80;9.70;;;;;;;;;;4970567;28;20202;-75
2022/03/05 09:30:19;;;;;;;17.70;11.48;;;;;;;;;;4972463;28;20193;-74
2022/03/05 09:32:46;;;;;;;18.85;11.82;;;;;;;;;;4972049;28;20202;-75
2022/03/05 09:35:13;;;;;;;19.38;10.68;;;;;;;;;;4967695;28;20284;-77
2022/03/05 09:37:40;;;;;;;15.23;9.88;;;;;;;;;;4965018;28;20205;-76
2022/03/05 09:40:09;;;;;;;17.15;10.30;;;;;;;;;;4970720;28;20236;-74
2022/03/05 09:42:36;;;;;;;17.55;10.45;;;;;;;;;;4972863;28;20228;-75
2022/03/05 09:45:04;;;;;;;20.77;11.10;;;;;;;;;;4971062;28;20667;-75
2022/03/05 09:47:32;;;;;;;20.33;11.80;;;;;;;;;;4972585;28;20197;-75
2022/03/05 09:49:59;;;;;;;17.20;10.63;;;;;;;;;;4973294;28;20202;-75
2022/03/05 09:52:27;;;;;;;14.05;9.93;;;;;;;;;;4967807;28;20616;-75
2022/03/05 09:54:54;;;;;;;17.00;10.82;;;;;;;;;;4967805;28;20194;-75
2022/03/05 09:57:21;;;;;;;18.42;10.15;;;;;;;;;;4966727;28;20210;-74
2022/03/05 09:59:48;;;;;;;16.25;11.05;;;;;;;;;;4961706;28;20202;-73
2022/03/05 10:02:15;;;;;;;17.05;9.80;;;;;;;;;;4969018;28;20190;-75
2022/03/05 10:04:43;;;;;;;14.85;10.10;;;;;;;;;;4965080;28;20226;-74
2022/03/05 10:07:12;;;;;;;14.85;9.27;;;;;;;;;;4959713;28;20201;-75
2022/03/05 10:09:39;;;;;;;18.83;11.23;;;;;;;;;;4962693;28;20276;-72
2022/03/05 10:12:25;;;;;;;19.15;11.15;;;;;;;;;;4963397;28;20225;-76
2022/03/05 10:15:09;;;;;;;18.77;9.82;;;;;;;;;;4962047;28;20214;-73
2022/03/05 10:17:50;;;;;;;17.48;9.55;;;;;;;;;;4960797;28;20274;-72
2022/03/05 10:20:19;;;;;;;17.90;9.50;;;;;;;;;;4958396;28;20197;-75
2022/03/05 10:22:55;;;;;;;17.17;9.10;;;;;;;;;;4960707;28;20229;-74
2022/03/05 10:25:28;;;;;;;17.33;9.95;;;;;;;;;;4965657;28;20576;-74
2022/03/05 10:28:00;;;;;;;16.55;10.30;;;;;;;;;;4967082;28;20201;-74
2022/03/05 10:30:30;;;;;;;18.58;11.15;;;;;;;;;;4963303;28;20208;-74
2022/03/05 10:32:57;;;;;;;21.83;12.32;;;;;;;;;;4964585;28;20255;-75
2022/03/05 10:35:26;;;;;;;18.50;11.30;;;;;;;;;;4960380;28;20197;-75
2022/03/05 10:37:54;;;;;;;21.02;12.50;;;;;;;;;;4958793;28;20473;-75
2022/03/05 10:40:28;;;;;;;18.35;10.95;;;;;;;;;;4968237;28;20201;-75
2022/03/05 10:42:55;;;;;;;22.52;12.60;;;;;;;;;;4967432;28;20231;-75
2022/03/05 10:45:22;;;;;;;20.50;12.32;;;;;;;;;;4956563;28;20210;-74
2022/03/05 10:47:49;;;;;;;16.45;11.75;;;;;;;;;;4969239;28;20202;-74
2022/03/05 10:50:23;;;;;;;17.13;11.00;;;;;;;;;;4965070;28;20699;-74
2022/03/05 10:52:52;;;;;;;18.83;11.68;;;;;;;;;;4966902;28;20221;-75
2022/03/05 10:55:20;;;;;;;20.58;12.23;;;;;;;;;;4969300;28;20197;-74
2022/03/05 10:57:57;;;;;;;20.60;11.70;;;;;;;;;;4967855;28;20500;-75
2022/03/05 11:00:24;;;;;;;18.52;11.40;;;;;;;;;;4963930;28;20205;-75
2022/03/05 11:02:51;;;;;;;19.40;11.80;;;;;;;;;;4965014;28;20198;-76
2022/03/05 11:05:19;;;;;;;17.25;10.55;;;;;;;;;;4967513;28;20212;-74
2022/03/05 11:07:47;;;;;;;18.52;11.52;;;;;;;;;;4966545;28;20220;-74
2022/03/05 11:10:16;;;;;;;17.60;11.32;;;;;;;;;;4964957;28;20204;-75
2022/03/05 11:12:45;;;;;;;23.42;12.48;;;;;;;;;;4967894;28;20308;-74
2022/03/05 11:15:12;;;;;;;22.05;11.77;;;;;;;;;;4965673;28;20219;-76
2022/03/05 11:17:40;;;;;;;18.10;12.40;;;;;;;;;;4967501;28;20489;-74
2022/03/05 11:20:08;;;;;;;15.48;10.35;;;;;;;;;;4963053;28;20645;-76
2022/03/05 11:22:35;;;;;;;25.40;12.35;;;;;;;;;;4959747;28;20201;-75
2022/03/05 11:25:02;;;;;;;17.35;11.40;;;;;;;;;;4968906;28;20233;-76
2022/03/05 11:27:31;;;;;;;15.77;10.25;;;;;;;;;;4962517;28;20204;-74
2022/03/05 11:29:59;;;;;;;15.43;10.48;;;;;;;;;;4962366;28;20198;-77
2022/03/05 11:32:29;;;;;;;17.92;12.23;;;;;;;;;;4965788;28;20470;-76
2022/03/05 11:34:56;;;;;;;17.70;10.88;;;;;;;;;;4963203;28;20201;-74
2022/03/05 11:37:25;;;;;;;15.63;10.48;;;;;;;;;;4961561;28;20210;-74
2022/03/05 11:39:52;;;;;;;20.27;11.65;;;;;;;;;;4968026;28;20209;-73
2022/03/05 11:42:28;;;;;;;15.32;11.05;;;;;;;;;;4971303;28;20197;-75
2022/03/05 11:44:56;;;;;;;18.75;11.35;;;;;;;;;;4968163;28;20225;-74
2022/03/05 11:47:28;;;;;;;16.70;10.20;;;;;;;;;;4969461;28;20679;-73
2022/03/05 11:50:13;;;;;;;20.55;11.32;;;;;;;;;;4972011;28;20193;-74
2022/03/05 11:52:59;;;;;;;13.82;9.13;;;;;;;;;;4967801;28;20209;-72
2022/03/05 11:55:26;;;;;;;18.20;10.70;;;;;;;;;;4965465;28;20201;-74
2022/03/05 11:58:09;;;;;;;14.38;9.30;;;;;;;;;;4968336;28;20190;-75
2022/03/05 12:00:38;;;;;;;13.40;9.85;;;;;;;;;;4969919;28;20197;-74
2022/03/05 12:03:06;;;;;;;17.40;10.13;;;;;;;;;;4971037;28;20691;-74
2022/03/05 12:05:51;;;;;;;12.02;8.57;;;;;;;;;;4965742;28;20201;-75
2022/03/05 12:08:33;;;;;;;15.48;9.90;;;;;;;;;;4969138;28;20197;-77
2022/03/05 12:11:10;;;;;;;15.70;10.15;;;;;;;;;;4973135;28;20201;-75
2022/03/05 12:13:41;;;;;;;14.68;8.90;;;;;;;;;;4971797;28;20205;-75
2022/03/05 12:16:15;;;;;;;16.42;10.43;;;;;;;;;;4970144;28;20252;-75
2022/03/05 12:18:43;;;;;;;16.40;10.27;;;;;;;;;;4970879;28;20284;-75
2022/03/05 12:21:10;;;;;;;12.35;8.88;;;;;;;;;;4973895;28;20198;-73
2022/03/05 12:23:37;;;;;;;15.48;9.60;;;;;;;;;;4966683;28;20234;-73
2022/03/05 12:26:05;;;;;;;12.68;8.95;;;;;;;;;;4972292;28;20209;-73
2022/03/05 12:28:40;;;;;;;15.23;9.85;;;;;;;;;;4971698;28;20213;-73
2022/03/05 12:31:12;;;;;;;12.00;8.93;;;;;;;;;;4972867;28;20197;-73
2022/03/05 12:33:41;;;;;;;14.55;9.27;;;;;;;;;;4974025;28;20319;-73
2022/03/05 12:36:14;;;;;;;16.60;9.45;;;;;;;;;;4971630;28;20201;-74
2022/03/05 12:38:41;;;;;;;18.10;9.38;;;;;;;;;;4973104;28;20197;-74
2022/03/05 12:41:08;;;;;;;16.52;7.80;;;;;;;;;;4965305;28;20213;-73
2022/03/05 12:43:35;;;;;;;14.18;9.27;;;;;;;;;;4967729;28;20595;-74
2022/03/05 12:46:02;;;;;;;16.67;9.57;;;;;;;;;;4963958;28;20541;-74
2022/03/05 12:48:29;;;;;;;21.08;11.90;;;;;;;;;;4966962;28;20201;-73
2022/03/05 12:50:58;;;;;;;16.33;10.10;;;;;;;;;;4966432;28;20201;-74
2022/03/05 12:53:26;;;;;;;12.25;8.18;;;;;;;;;;4963369;28;20220;-74
2022/03/05 12:55:55;;;;;;;12.90;8.18;;;;;;;;;;4966646;28;20198;-74
2022/03/05 12:58:23;;;;;;;14.60;9.55;;;;;;;;;;4966943;28;20197;-74
2022/03/05 13:00:50;;;;;;;12.02;7.88;;;;;;;;;;4967621;28;20244;-74
2022/03/05 13:03:18;;;;;;;13.75;8.90;;;;;;;;;;4967125;28;20201;-74
2022/03/05 13:05:46;;;;;;;12.15;8.60;;;;;;;;;;4967974;28;20917;-75
2022/03/05 13:08:18;;;;;;;13.00;8.95;;;;;;;;;;4967253;28;20201;-75
2022/03/05 13:10:45;;;;;;;13.23;7.57;;;;;;;;;;4965587;28;20189;-74
2022/03/05 13:13:13;;;;;;;12.43;8.45;;;;;;;;;;4967663;28;20201;-74
2022/03/05 13:15:41;;;;;;;11.15;7.93;;;;;;;;;;4971061;28;20198;-74
2022/03/05 13:18:09;;;;;;;13.57;7.55;;;;;;;;;;4965738;28;20200;-73
2022/03/05 13:20:36;;;;;;;11.52;7.50;;;;;;;;;;4964042;28;20197;-73
2022/03/05 13:23:04;;;;;;;13.73;9.38;;;;;;;;;;4964232;28;20581;-74
2022/03/05 13:25:39;;;;;;;12.68;8.10;;;;;;;;;;4971993;28;20648;-74
2022/03/05 13:28:06;;;;;;;10.45;8.48;;;;;;;;;;4963839;28;20208;-73
2022/03/05 13:30:33;;;;;;;15.82;8.60;;;;;;;;;;4964581;28;20212;-73
2022/03/05 13:33:00;;;;;;;13.00;8.82;;;;;;;;;;4964334;28;20221;-73
2022/03/05 13:35:28;;;;;;;9.43;7.45;;;;;;;;;;4965826;28;20209;-76
2022/03/05 13:37:57;;;;;;;11.50;8.05;;;;;;;;;;4964222;28;20229;-74
2022/03/05 13:40:25;;;;;;;12.27;7.88;;;;;;;;;;4964720;28;21231;-73
2022/03/05 13:42:58;;;;;;;13.48;7.82;;;;;;;;;;4966287;28;22103;-75
2022/03/05 13:45:29;;;;;;;12.65;7.13;;;;;;;;;;4963664;28;20234;-74
2022/03/05 13:47:56;;;;;;;11.70;7.20;;;;;;;;;;4965522;28;20221;-73
2022/03/05 13:50:24;;;;;;;11.35;7.65;;;;;;;;;;4965104;28;20228;-73
2022/03/05 13:52:55;;;;;;;12.07;8.20;;;;;;;;;;4969310;28;20205;-74
2022/03/05 13:55:22;;;;;;;11.98;8.55;;;;;;;;;;4972180;28;20216;-74
2022/03/05 13:57:54;;;;;;;10.90;7.20;;;;;;;;;;4963753;28;20193;-73
2022/03/05 14:00:24;;;;;;;9.10;7.15;;;;;;;;;;4965736;28;20205;-73
2022/03/05 14:02:51;;;;;;;10.75;7.95;;;;;;;;;;4971912;28;20741;-73
2022/03/05 14:05:21;;;;;;;13.45;7.05;;;;;;;;;;4968238;28;20249;-74
2022/03/05 14:07:48;;;;;;;12.63;7.97;;;;;;;;;;4962728;28;20205;-73
2022/03/05 14:10:16;;;;;;;8.98;6.07;;;;;;;;;;4969652;28;20561;-73
2022/03/05 14:12:45;;;;;;;12.10;7.22;;;;;;;;;;4964458;28;20672;-75
2022/03/05 14:15:12;;;;;;;10.85;6.82;;;;;;;;;;4971080;28;20201;-73
2022/03/05 14:17:41;;;;;;;9.65;6.40;;;;;;;;;;4968844;28;20205;-74
2022/03/05 14:20:13;;;;;;;10.05;7.38;;;;;;;;;;4970321;28;20209;-74
2022/03/05 14:22:42;;;;;;;11.45;6.80;;;;;;;;;;4970483;28;20209;-73
2022/03/05 14:25:22;;;;;;;12.05;7.20;;;;;;;;;;4964790;28;20228;-73